sensor_id;sensor_type;location;lat;lon;timestamp;temperature;humidity
2190;DHT22;1101;51.056;7.262;2022-07-03T00:00:53;18.20;68.50
2190;DHT22;1101;51.056;7.262;2022-07-03T00:03:21;18.20;68.60
2190;DHT22;1101;51.056;7.262;2022-07-03T00:05:49;18.20;68.70
2190;DHT22;1101;51.056;7.262;2022-07-03T00:08:18;18.20;68.80
2190;DHT22;1101;51.056;7.262;2022-07-03T00:10:45;18.10;68.80
2190;DHT22;1101;51.056;7.262;2022-07-03T00:13:13;18.10;68.80
2190;DHT22;1101;51.056;7.262;2022-07-03T00:15:41;18.00;68.90
2190;DHT22;1101;51.056;7.262;2022-07-03T00:18:10;17.90;68.90
2190;DHT22;1101;51.056;7.262;2022-07-03T00:20:40;17.80;68.90
2190;DHT22;1101;51.056;7.262;2022-07-03T00:23:09;17.80;69.10
2190;DHT22;1101;51.056;7.262;2022-07-03T00:25:40;17.80;69.90
2190;DHT22;1101;51.056;7.262;2022-07-03T00:28:09;17.70;69.20
2190;DHT22;1101;51.056;7.262;2022-07-03T00:30:37;17.70;69.30
2190;DHT22;1101;51.056;7.262;2022-07-03T00:33:05;17.70;69.40
2190;DHT22;1101;51.056;7.262;2022-07-03T00:35:36;17.60;69.30
2190;DHT22;1101;51.056;7.262;2022-07-03T00:38:04;17.60;69.40
2190;DHT22;1101;51.056;7.262;2022-07-03T00:40:36;17.50;69.30
2190;DHT22;1101;51.056;7.262;2022-07-03T00:43:05;17.50;69.40
2190;DHT22;1101;51.056;7.262;2022-07-03T00:45:34;17.50;69.40
2190;DHT22;1101;51.056;7.262;2022-07-03T00:48:05;17.40;69.40
2190;DHT22;1101;51.056;7.262;2022-07-03T00:50:36;17.40;69.60
2190;DHT22;1101;51.056;7.262;2022-07-03T00:53:04;17.40;69.70
2190;DHT22;1101;51.056;7.262;2022-07-03T00:55:34;17.30;69.70
2190;DHT22;1101;51.056;7.262;2022-07-03T00:58:06;17.30;69.90
2190;DHT22;1101;51.056;7.262;2022-07-03T01:00:35;17.20;69.90
2190;DHT22;1101;51.056;7.262;2022-07-03T01:03:07;17.20;70.00
2190;DHT22;1101;51.056;7.262;2022-07-03T01:05:40;17.20;70.10
2190;DHT22;1101;51.056;7.262;2022-07-03T01:10:59;17.10;70.20
2190;DHT22;1101;51.056;7.262;2022-07-03T01:13:38;17.00;70.20
2190;DHT22;1101;51.056;7.262;2022-07-03T01:16:17;17.00;70.20
2190;DHT22;1101;51.056;7.262;2022-07-03T01:18:49;16.90;70.20
2190;DHT22;1101;51.056;7.262;2022-07-03T01:21:41;16.90;70.30
2190;DHT22;1101;51.056;7.262;2022-07-03T01:24:42;16.90;70.40
2190;DHT22;1101;51.056;7.262;2022-07-03T01:27:14;16.80;70.50
2190;DHT22;1101;51.056;7.262;2022-07-03T01:29:51;16.80;70.50
2190;DHT22;1101;51.056;7.262;2022-07-03T01:32:24;16.80;70.70
2190;DHT22;1101;51.056;7.262;2022-07-03T01:34:56;16.70;70.60
2190;DHT22;1101;51.056;7.262;2022-07-03T01:37:27;16.70;70.80
2190;DHT22;1101;51.056;7.262;2022-07-03T01:39:57;16.60;70.70
2190;DHT22;1101;51.056;7.262;2022-07-03T01:42:32;16.60;70.80
2190;DHT22;1101;51.056;7.262;2022-07-03T01:45:02;16.50;70.80
2190;DHT22;1101;51.056;7.262;2022-07-03T01:47:31;16.50;71.00
2190;DHT22;1101;51.056;7.262;2022-07-03T01:50:01;16.50;71.00
2190;DHT22;1101;51.056;7.262;2022-07-03T01:52:31;16.50;71.00
2190;DHT22;1101;51.056;7.262;2022-07-03T01:55:15;16.40;71.50
2190;DHT22;1101;51.056;7.262;2022-07-03T01:57:45;16.40;71.00
2190;DHT22;1101;51.056;7.262;2022-07-03T02:00:16;16.40;71.10
2190;DHT22;1101;51.056;7.262;2022-07-03T02:02:53;16.30;71.20
2190;DHT22;1101;51.056;7.262;2022-07-03T02:05:29;16.30;71.30
2190;DHT22;1101;51.056;7.262;2022-07-03T02:08:03;16.20;71.30
2190;DHT22;1101;51.056;7.262;2022-07-03T02:10:34;16.20;71.50
2190;DHT22;1101;51.056;7.262;2022-07-03T02:13:07;16.10;71.50
2190;DHT22;1101;51.056;7.262;2022-07-03T02:15:36;16.10;71.70
2190;DHT22;1101;51.056;7.262;2022-07-03T02:18:23;16.10;71.70
2190;DHT22;1101;51.056;7.262;2022-07-03T02:21:00;16.00;71.80
2190;DHT22;1101;51.056;7.262;2022-07-03T02:23:31;16.00;71.90
2190;DHT22;1101;51.056;7.262;2022-07-03T02:26:02;16.00;72.00
2190;DHT22;1101;51.056;7.262;2022-07-03T02:28:47;15.90;71.90
2190;DHT22;1101;51.056;7.262;2022-07-03T02:31:18;15.90;72.10
2190;DHT22;1101;51.056;7.262;2022-07-03T02:33:50;15.90;72.20
2190;DHT22;1101;51.056;7.262;2022-07-03T02:36:23;15.80;72.10
2190;DHT22;1101;51.056;7.262;2022-07-03T02:38:56;15.80;72.30
2190;DHT22;1101;51.056;7.262;2022-07-03T02:44:52;15.80;72.30
2190;DHT22;1101;51.056;7.262;2022-07-03T02:47:27;15.70;72.30
2190;DHT22;1101;51.056;7.262;2022-07-03T02:50:03;15.70;72.40
2190;DHT22;1101;51.056;7.262;2022-07-03T02:52:44;15.70;72.40
2190;DHT22;1101;51.056;7.262;2022-07-03T02:55:39;15.70;72.50
2190;DHT22;1101;51.056;7.262;2022-07-03T02:58:26;15.70;72.50
2190;DHT22;1101;51.056;7.262;2022-07-03T03:00:58;15.60;72.50
2190;DHT22;1101;51.056;7.262;2022-07-03T03:03:29;15.60;72.50
2190;DHT22;1101;51.056;7.262;2022-07-03T03:06:02;15.60;72.70
2190;DHT22;1101;51.056;7.262;2022-07-03T03:08:36;15.50;72.60
2190;DHT22;1101;51.056;7.262;2022-07-03T03:11:07;15.50;72.80
2190;DHT22;1101;51.056;7.262;2022-07-03T03:13:36;15.50;72.80
2190;DHT22;1101;51.056;7.262;2022-07-03T03:16:07;15.40;72.80
2190;DHT22;1101;51.056;7.262;2022-07-03T03:18:37;15.40;72.90
2190;DHT22;1101;51.056;7.262;2022-07-03T03:21:08;15.40;73.00
2190;DHT22;1101;51.056;7.262;2022-07-03T03:23:43;15.40;73.00
2190;DHT22;1101;51.056;7.262;2022-07-03T03:26:11;15.30;73.00
2190;DHT22;1101;51.056;7.262;2022-07-03T03:28:39;15.30;73.00
2190;DHT22;1101;51.056;7.262;2022-07-03T03:31:09;15.30;73.10
2190;DHT22;1101;51.056;7.262;2022-07-03T03:33:39;15.20;73.10
2190;DHT22;1101;51.056;7.262;2022-07-03T03:36:09;15.20;73.20
2190;DHT22;1101;51.056;7.262;2022-07-03T03:38:38;15.20;73.20
2190;DHT22;1101;51.056;7.262;2022-07-03T03:41:06;15.10;73.30
2190;DHT22;1101;51.056;7.262;2022-07-03T03:43:43;15.10;73.30
2190;DHT22;1101;51.056;7.262;2022-07-03T03:46:13;15.10;73.50
2190;DHT22;1101;51.056;7.262;2022-07-03T03:48:42;15.10;73.70
2190;DHT22;1101;51.056;7.262;2022-07-03T03:51:10;15.10;73.70
2190;DHT22;1101;51.056;7.262;2022-07-03T03:53:39;15.10;73.70
2190;DHT22;1101;51.056;7.262;2022-07-03T03:56:10;15.10;73.70
2190;DHT22;1101;51.056;7.262;2022-07-03T03:58:40;15.10;73.80
2190;DHT22;1101;51.056;7.262;2022-07-03T04:01:09;15.20;73.90
2190;DHT22;1101;51.056;7.262;2022-07-03T04:03:39;15.20;73.90
2190;DHT22;1101;51.056;7.262;2022-07-03T04:06:08;15.20;73.90
2190;DHT22;1101;51.056;7.262;2022-07-03T04:08:36;15.30;74.00
2190;DHT22;1101;51.056;7.262;2022-07-03T04:11:04;15.30;74.00
2190;DHT22;1101;51.056;7.262;2022-07-03T04:13:32;15.30;74.00
2190;DHT22;1101;51.056;7.262;2022-07-03T04:16:00;15.30;74.00
2190;DHT22;1101;51.056;7.262;2022-07-03T04:18:28;15.40;74.00
2190;DHT22;1101;51.056;7.262;2022-07-03T04:21:00;15.40;74.00
2190;DHT22;1101;51.056;7.262;2022-07-03T04:23:28;15.40;74.00
2190;DHT22;1101;51.056;7.262;2022-07-03T04:25:56;15.40;74.20
2190;DHT22;1101;51.056;7.262;2022-07-03T04:28:29;15.40;74.20
2190;DHT22;1101;51.056;7.262;2022-07-03T04:30:57;15.40;74.20
2190;DHT22;1101;51.056;7.262;2022-07-03T04:33:25;15.50;74.20
2190;DHT22;1101;51.056;7.262;2022-07-03T04:35:53;15.40;74.20
2190;DHT22;1101;51.056;7.262;2022-07-03T04:38:22;15.50;74.20
2190;DHT22;1101;51.056;7.262;2022-07-03T04:40:50;15.40;74.20
2190;DHT22;1101;51.056;7.262;2022-07-03T04:43:17;15.50;74.40
2190;DHT22;1101;51.056;7.262;2022-07-03T04:45:45;15.50;74.40
2190;DHT22;1101;51.056;7.262;2022-07-03T04:48:13;15.50;74.40
2190;DHT22;1101;51.056;7.262;2022-07-03T04:50:41;15.50;74.40
2190;DHT22;1101;51.056;7.262;2022-07-03T04:53:09;15.60;74.50
2190;DHT22;1101;51.056;7.262;2022-07-03T04:55:38;15.50;74.40
2190;DHT22;1101;51.056;7.262;2022-07-03T04:58:06;15.50;74.50
2190;DHT22;1101;51.056;7.262;2022-07-03T05:00:34;15.50;74.60
2190;DHT22;1101;51.056;7.262;2022-07-03T05:03:10;15.60;74.70
2190;DHT22;1101;51.056;7.262;2022-07-03T05:05:38;15.60;74.80
2190;DHT22;1101;51.056;7.262;2022-07-03T05:08:05;15.60;74.90
2190;DHT22;1101;51.056;7.262;2022-07-03T05:10:33;15.70;75.00
2190;DHT22;1101;51.056;7.262;2022-07-03T05:13:02;15.70;75.00
2190;DHT22;1101;51.056;7.262;2022-07-03T05:15:30;15.80;74.90
2190;DHT22;1101;51.056;7.262;2022-07-03T05:17:58;15.90;74.90
2190;DHT22;1101;51.056;7.262;2022-07-03T05:20:26;15.90;74.90
2190;DHT22;1101;51.056;7.262;2022-07-03T05:22:56;16.00;74.90
2190;DHT22;1101;51.056;7.262;2022-07-03T05:25:25;16.10;74.70
2190;DHT22;1101;51.056;7.262;2022-07-03T05:27:53;16.10;74.60
2190;DHT22;1101;51.056;7.262;2022-07-03T05:30:24;16.20;74.60
2190;DHT22;1101;51.056;7.262;2022-07-03T05:32:52;16.30;74.80
2190;DHT22;1101;51.056;7.262;2022-07-03T05:35:21;16.30;74.80
2190;DHT22;1101;51.056;7.262;2022-07-03T05:37:48;16.30;74.90
2190;DHT22;1101;51.056;7.262;2022-07-03T05:40:16;16.40;74.90
2190;DHT22;1101;51.056;7.262;2022-07-03T05:42:44;16.40;74.90
2190;DHT22;1101;51.056;7.262;2022-07-03T05:45:12;16.50;74.90
2190;DHT22;1101;51.056;7.262;2022-07-03T05:47:41;16.60;75.10
2190;DHT22;1101;51.056;7.262;2022-07-03T05:50:12;16.70;75.00
2190;DHT22;1101;51.056;7.262;2022-07-03T05:52:44;16.70;74.90
2190;DHT22;1101;51.056;7.262;2022-07-03T05:55:12;16.80;74.60
2190;DHT22;1101;51.056;7.262;2022-07-03T05:57:40;16.90;75.70
2190;DHT22;1101;51.056;7.262;2022-07-03T06:00:08;17.00;74.60
2190;DHT22;1101;51.056;7.262;2022-07-03T06:02:36;17.10;74.60
2190;DHT22;1101;51.056;7.262;2022-07-03T06:05:06;17.10;74.40
2190;DHT22;1101;51.056;7.262;2022-07-03T06:07:34;17.20;74.30
2190;DHT22;1101;51.056;7.262;2022-07-03T06:10:03;17.30;74.30
2190;DHT22;1101;51.056;7.262;2022-07-03T06:12:31;17.40;74.30
2190;DHT22;1101;51.056;7.262;2022-07-03T06:14:59;17.50;74.40
2190;DHT22;1101;51.056;7.262;2022-07-03T06:17:29;17.50;74.40
2190;DHT22;1101;51.056;7.262;2022-07-03T06:19:57;17.60;74.20
2190;DHT22;1101;51.056;7.262;2022-07-03T06:22:26;17.70;74.90
2190;DHT22;1101;51.056;7.262;2022-07-03T06:24:54;17.80;74.10
2190;DHT22;1101;51.056;7.262;2022-07-03T06:27:22;17.90;74.00
2190;DHT22;1101;51.056;7.262;2022-07-03T06:29:50;18.00;74.00
2190;DHT22;1101;51.056;7.262;2022-07-03T06:32:18;18.10;74.00
2190;DHT22;1101;51.056;7.262;2022-07-03T06:34:46;18.20;74.00
2190;DHT22;1101;51.056;7.262;2022-07-03T06:37:15;18.30;73.80
2190;DHT22;1101;51.056;7.262;2022-07-03T06:39:44;18.30;73.70
2190;DHT22;1101;51.056;7.262;2022-07-03T06:42:12;18.40;73.60
2190;DHT22;1101;51.056;7.262;2022-07-03T06:44:40;18.50;73.60
2190;DHT22;1101;51.056;7.262;2022-07-03T06:47:08;18.60;73.60
2190;DHT22;1101;51.056;7.262;2022-07-03T06:49:36;18.70;73.60
2190;DHT22;1101;51.056;7.262;2022-07-03T06:52:04;18.90;73.70
2190;DHT22;1101;51.056;7.262;2022-07-03T06:54:32;19.00;73.50
2190;DHT22;1101;51.056;7.262;2022-07-03T06:57:01;19.10;73.40
2190;DHT22;1101;51.056;7.262;2022-07-03T06:59:29;19.20;73.30
2190;DHT22;1101;51.056;7.262;2022-07-03T07:01:57;19.30;73.30
2190;DHT22;1101;51.056;7.262;2022-07-03T07:04:24;19.40;73.30
2190;DHT22;1101;51.056;7.262;2022-07-03T07:06:52;19.50;73.20
2190;DHT22;1101;51.056;7.262;2022-07-03T07:09:20;19.60;73.30
2190;DHT22;1101;51.056;7.262;2022-07-03T07:11:48;19.60;73.10
2190;DHT22;1101;51.056;7.262;2022-07-03T07:14:17;19.70;73.00
2190;DHT22;1101;51.056;7.262;2022-07-03T07:16:45;19.80;72.90
2190;DHT22;1101;51.056;7.262;2022-07-03T07:19:13;19.90;72.90
2190;DHT22;1101;51.056;7.262;2022-07-03T07:21:41;20.00;72.90
2190;DHT22;1101;51.056;7.262;2022-07-03T07:24:09;20.10;72.80
2190;DHT22;1101;51.056;7.262;2022-07-03T07:26:38;20.20;72.70
2190;DHT22;1101;51.056;7.262;2022-07-03T07:29:06;20.30;72.70
2190;DHT22;1101;51.056;7.262;2022-07-03T07:31:35;20.40;72.50
2190;DHT22;1101;51.056;7.262;2022-07-03T07:34:03;20.40;72.50
2190;DHT22;1101;51.056;7.262;2022-07-03T07:36:31;20.60;72.70
2190;DHT22;1101;51.056;7.262;2022-07-03T07:38:59;20.70;72.50
2190;DHT22;1101;51.056;7.262;2022-07-03T07:41:27;20.70;72.40
2190;DHT22;1101;51.056;7.262;2022-07-03T07:43:55;20.80;72.30
2190;DHT22;1101;51.056;7.262;2022-07-03T07:46:23;20.90;72.30
2190;DHT22;1101;51.056;7.262;2022-07-03T07:48:52;21.10;72.30
2190;DHT22;1101;51.056;7.262;2022-07-03T07:51:20;21.20;72.10
2190;DHT22;1101;51.056;7.262;2022-07-03T07:53:48;21.30;72.00
2190;DHT22;1101;51.056;7.262;2022-07-03T07:56:16;21.50;72.70
2190;DHT22;1101;51.056;7.262;2022-07-03T07:58:44;21.60;71.90
2190;DHT22;1101;51.056;7.262;2022-07-03T08:01:12;21.70;71.90
2190;DHT22;1101;51.056;7.262;2022-07-03T08:03:59;21.80;71.70
2190;DHT22;1101;51.056;7.262;2022-07-03T08:06:44;21.90;71.50
2190;DHT22;1101;51.056;7.262;2022-07-03T08:09:12;22.00;71.40
2190;DHT22;1101;51.056;7.262;2022-07-03T08:11:40;22.10;71.50
2190;DHT22;1101;51.056;7.262;2022-07-03T08:14:08;22.20;71.50
2190;DHT22;1101;51.056;7.262;2022-07-03T08:16:37;22.40;72.20
2190;DHT22;1101;51.056;7.262;2022-07-03T08:19:08;22.50;71.30
2190;DHT22;1101;51.056;7.262;2022-07-03T08:21:36;22.60;71.10
2190;DHT22;1101;51.056;7.262;2022-07-03T08:24:05;22.60;71.10
2190;DHT22;1101;51.056;7.262;2022-07-03T08:26:32;22.70;71.00
2190;DHT22;1101;51.056;7.262;2022-07-03T08:29:00;22.90;71.00
2190;DHT22;1101;51.056;7.262;2022-07-03T08:31:30;23.00;70.80
2190;DHT22;1101;51.056;7.262;2022-07-03T08:33:57;23.10;70.80
2190;DHT22;1101;51.056;7.262;2022-07-03T08:36:27;23.20;70.60
2190;DHT22;1101;51.056;7.262;2022-07-03T08:38:54;23.30;70.50
2190;DHT22;1101;51.056;7.262;2022-07-03T08:41:23;23.40;70.50
2190;DHT22;1101;51.056;7.262;2022-07-03T08:43:53;23.50;70.30
2190;DHT22;1101;51.056;7.262;2022-07-03T08:46:22;23.60;70.20
2190;DHT22;1101;51.056;7.262;2022-07-03T08:48:50;23.60;70.20
2190;DHT22;1101;51.056;7.262;2022-07-03T08:51:19;23.80;70.30
2190;DHT22;1101;51.056;7.262;2022-07-03T08:53:50;23.90;70.20
2190;DHT22;1101;51.056;7.262;2022-07-03T08:56:20;24.00;70.00
2190;DHT22;1101;51.056;7.262;2022-07-03T08:58:49;24.10;69.90
2190;DHT22;1101;51.056;7.262;2022-07-03T09:01:18;24.10;69.70
2190;DHT22;1101;51.056;7.262;2022-07-03T09:03:46;24.20;69.80
2190;DHT22;1101;51.056;7.262;2022-07-03T09:06:14;24.20;69.60
2190;DHT22;1101;51.056;7.262;2022-07-03T09:08:43;24.30;69.70
2190;DHT22;1101;51.056;7.262;2022-07-03T09:11:13;24.30;69.40
2190;DHT22;1101;51.056;7.262;2022-07-03T09:13:41;24.30;69.40
2190;DHT22;1101;51.056;7.262;2022-07-03T09:16:14;24.30;69.40
2190;DHT22;1101;51.056;7.262;2022-07-03T09:18:44;24.30;69.40
2190;DHT22;1101;51.056;7.262;2022-07-03T09:21:12;24.30;69.40
2190;DHT22;1101;51.056;7.262;2022-07-03T09:23:42;24.50;69.50
2190;DHT22;1101;51.056;7.262;2022-07-03T09:26:13;24.60;69.40
2190;DHT22;1101;51.056;7.262;2022-07-03T09:28:44;24.70;69.40
2190;DHT22;1101;51.056;7.262;2022-07-03T09:31:15;24.80;69.10
2190;DHT22;1101;51.056;7.262;2022-07-03T09:33:57;24.80;68.80
2190;DHT22;1101;51.056;7.262;2022-07-03T09:36:42;24.90;68.90
2190;DHT22;1101;51.056;7.262;2022-07-03T09:39:16;25.00;69.00
2190;DHT22;1101;51.056;7.262;2022-07-03T09:41:56;25.10;68.80
2190;DHT22;1101;51.056;7.262;2022-07-03T09:44:35;25.10;68.30
2190;DHT22;1101;51.056;7.262;2022-07-03T09:47:14;25.10;68.60
2190;DHT22;1101;51.056;7.262;2022-07-03T09:49:46;25.20;68.60
2190;DHT22;1101;51.056;7.262;2022-07-03T09:52:26;25.20;68.60
2190;DHT22;1101;51.056;7.262;2022-07-03T09:54:55;25.20;68.40
2190;DHT22;1101;51.056;7.262;2022-07-03T09:57:27;25.20;68.50
2190;DHT22;1101;51.056;7.262;2022-07-03T10:00:12;25.30;68.40
2190;DHT22;1101;51.056;7.262;2022-07-03T10:02:57;25.30;68.40
2190;DHT22;1101;51.056;7.262;2022-07-03T10:05:28;25.50;68.20
2190;DHT22;1101;51.056;7.262;2022-07-03T10:07:58;25.50;67.90
2190;DHT22;1101;51.056;7.262;2022-07-03T10:10:28;25.60;67.60
2190;DHT22;1101;51.056;7.262;2022-07-03T10:12:58;25.60;67.70
2190;DHT22;1101;51.056;7.262;2022-07-03T10:15:30;25.70;67.80
2190;DHT22;1101;51.056;7.262;2022-07-03T10:18:00;25.80;67.60
2190;DHT22;1101;51.056;7.262;2022-07-03T10:20:29;25.90;67.50
2190;DHT22;1101;51.056;7.262;2022-07-03T10:22:57;26.00;67.60
2190;DHT22;1101;51.056;7.262;2022-07-03T10:25:25;26.00;67.50
2190;DHT22;1101;51.056;7.262;2022-07-03T10:27:53;26.10;67.20
2190;DHT22;1101;51.056;7.262;2022-07-03T10:30:24;26.10;67.20
2190;DHT22;1101;51.056;7.262;2022-07-03T10:32:54;26.20;67.20
2190;DHT22;1101;51.056;7.262;2022-07-03T10:35:25;26.20;67.00
2190;DHT22;1101;51.056;7.262;2022-07-03T10:38:07;26.30;67.10
2190;DHT22;1101;51.056;7.262;2022-07-03T10:40:42;26.40;66.70
2190;DHT22;1101;51.056;7.262;2022-07-03T10:43:35;26.50;66.70
2190;DHT22;1101;51.056;7.262;2022-07-03T10:46:24;26.50;66.70
2190;DHT22;1101;51.056;7.262;2022-07-03T10:48:56;26.50;66.40
2190;DHT22;1101;51.056;7.262;2022-07-03T10:51:27;26.60;66.40
2190;DHT22;1101;51.056;7.262;2022-07-03T10:54:15;26.70;66.50
2190;DHT22;1101;51.056;7.262;2022-07-03T10:57:14;26.80;66.30
2190;DHT22;1101;51.056;7.262;2022-07-03T11:00:15;26.80;66.30
2190;DHT22;1101;51.056;7.262;2022-07-03T11:02:46;26.90;66.10
2190;DHT22;1101;51.056;7.262;2022-07-03T11:05:19;26.90;65.70
2190;DHT22;1101;51.056;7.262;2022-07-03T11:08:10;27.00;65.60
2190;DHT22;1101;51.056;7.262;2022-07-03T11:10:43;27.10;65.60
2190;DHT22;1101;51.056;7.262;2022-07-03T11:13:14;27.20;65.30
2190;DHT22;1101;51.056;7.262;2022-07-03T11:15:50;27.30;65.10
2190;DHT22;1101;51.056;7.262;2022-07-03T11:18:30;27.40;65.10
2190;DHT22;1101;51.056;7.262;2022-07-03T11:24:17;27.40;65.00
2190;DHT22;1101;51.056;7.262;2022-07-03T11:27:18;27.50;64.70
2190;DHT22;1101;51.056;7.262;2022-07-03T11:29:53;27.70;64.70
2190;DHT22;1101;51.056;7.262;2022-07-03T11:32:42;27.80;64.20
2190;DHT22;1101;51.056;7.262;2022-07-03T11:35:48;27.90;64.20
2190;DHT22;1101;51.056;7.262;2022-07-03T11:38:29;27.90;64.10
2190;DHT22;1101;51.056;7.262;2022-07-03T11:40:59;28.00;64.00
2190;DHT22;1101;51.056;7.262;2022-07-03T11:43:27;28.00;63.60
2190;DHT22;1101;51.056;7.262;2022-07-03T11:45:55;28.10;63.50
2190;DHT22;1101;51.056;7.262;2022-07-03T11:48:25;28.10;63.10
2190;DHT22;1101;51.056;7.262;2022-07-03T11:51:00;28.10;63.20
2190;DHT22;1101;51.056;7.262;2022-07-03T11:53:30;28.10;63.20
2190;DHT22;1101;51.056;7.262;2022-07-03T11:55:59;28.10;63.00
2190;DHT22;1101;51.056;7.262;2022-07-03T11:58:41;28.10;63.10
2190;DHT22;1101;51.056;7.262;2022-07-03T12:01:10;28.20;63.10
2190;DHT22;1101;51.056;7.262;2022-07-03T12:03:38;28.20;62.90
2190;DHT22;1101;51.056;7.262;2022-07-03T12:06:07;28.30;63.00
2190;DHT22;1101;51.056;7.262;2022-07-03T12:08:35;28.40;62.50
2190;DHT22;1101;51.056;7.262;2022-07-03T12:11:08;28.30;62.60
2190;DHT22;1101;51.056;7.262;2022-07-03T12:13:36;28.30;62.30
2190;DHT22;1101;51.056;7.262;2022-07-03T12:16:10;28.40;62.10
2190;DHT22;1101;51.056;7.262;2022-07-03T12:18:44;28.40;62.50
2190;DHT22;1101;51.056;7.262;2022-07-03T12:21:15;28.50;62.50
2190;DHT22;1101;51.056;7.262;2022-07-03T12:23:45;28.60;62.30
2190;DHT22;1101;51.056;7.262;2022-07-03T12:26:13;28.80;62.20
2190;DHT22;1101;51.056;7.262;2022-07-03T12:28:41;28.80;61.60
2190;DHT22;1101;51.056;7.262;2022-07-03T12:31:11;28.80;61.50
2190;DHT22;1101;51.056;7.262;2022-07-03T12:33:38;28.80;60.70
2190;DHT22;1101;51.056;7.262;2022-07-03T12:36:09;28.70;60.90
2190;DHT22;1101;51.056;7.262;2022-07-03T12:38:38;28.70;61.00
2190;DHT22;1101;51.056;7.262;2022-07-03T12:41:13;28.70;61.50
2190;DHT22;1101;51.056;7.262;2022-07-03T12:43:44;28.80;61.60
2190;DHT22;1101;51.056;7.262;2022-07-03T12:46:20;29.00;61.20
2190;DHT22;1101;51.056;7.262;2022-07-03T12:48:49;29.00;61.00
2190;DHT22;1101;51.056;7.262;2022-07-03T12:51:36;29.00;60.10
2190;DHT22;1101;51.056;7.262;2022-07-03T12:54:06;28.80;60.00
2190;DHT22;1101;51.056;7.262;2022-07-03T12:56:34;28.70;60.60
2190;DHT22;1101;51.056;7.262;2022-07-03T12:59:02;28.70;60.90
2190;DHT22;1101;51.056;7.262;2022-07-03T13:01:45;28.80;60.90
2190;DHT22;1101;51.056;7.262;2022-07-03T13:04:13;28.90;61.10
2190;DHT22;1101;51.056;7.262;2022-07-03T13:06:44;29.00;61.00
2190;DHT22;1101;51.056;7.262;2022-07-03T13:09:14;29.10;60.60
2190;DHT22;1101;51.056;7.262;2022-07-03T13:11:42;29.10;60.00
2190;DHT22;1101;51.056;7.262;2022-07-03T13:14:12;29.10;60.50
2190;DHT22;1101;51.056;7.262;2022-07-03T13:16:42;29.10;59.20
2190;DHT22;1101;51.056;7.262;2022-07-03T13:19:12;29.00;59.30
2190;DHT22;1101;51.056;7.262;2022-07-03T13:21:40;28.70;59.50
2190;DHT22;1101;51.056;7.262;2022-07-03T13:24:11;28.60;59.80
2190;DHT22;1101;51.056;7.262;2022-07-03T13:26:40;28.60;60.30
2190;DHT22;1101;51.056;7.262;2022-07-03T13:29:08;28.70;60.30
2190;DHT22;1101;51.056;7.262;2022-07-03T13:31:36;28.70;60.30
2190;DHT22;1101;51.056;7.262;2022-07-03T13:34:04;28.70;60.10
2190;DHT22;1101;51.056;7.262;2022-07-03T13:36:33;28.60;60.00
2190;DHT22;1101;51.056;7.262;2022-07-03T13:39:01;28.40;59.90
2190;DHT22;1101;51.056;7.262;2022-07-03T13:41:29;28.20;60.00
2190;DHT22;1101;51.056;7.262;2022-07-03T13:43:58;28.00;60.30
2190;DHT22;1101;51.056;7.262;2022-07-03T13:46:26;27.90;60.70
2190;DHT22;1101;51.056;7.262;2022-07-03T13:48:54;27.80;60.50
2190;DHT22;1101;51.056;7.262;2022-07-03T13:51:21;27.60;60.70
2190;DHT22;1101;51.056;7.262;2022-07-03T13:53:49;27.60;61.00
2190;DHT22;1101;51.056;7.262;2022-07-03T13:56:17;27.50;60.90
2190;DHT22;1101;51.056;7.262;2022-07-03T13:58:45;27.40;61.10
2190;DHT22;1101;51.056;7.262;2022-07-03T14:01:18;27.30;61.20
2190;DHT22;1101;51.056;7.262;2022-07-03T14:03:48;27.30;61.30
2190;DHT22;1101;51.056;7.262;2022-07-03T14:06:16;27.40;61.70
2190;DHT22;1101;51.056;7.262;2022-07-03T14:08:44;27.60;61.60
2190;DHT22;1101;51.056;7.262;2022-07-03T14:11:11;27.90;61.50
2190;DHT22;1101;51.056;7.262;2022-07-03T14:13:42;28.00;61.10
2190;DHT22;1101;51.056;7.262;2022-07-03T14:16:11;28.20;60.90
2190;DHT22;1101;51.056;7.262;2022-07-03T14:18:41;28.30;60.30
2190;DHT22;1101;51.056;7.262;2022-07-03T14:21:08;28.40;60.30
2190;DHT22;1101;51.056;7.262;2022-07-03T14:23:36;28.40;60.50
2190;DHT22;1101;51.056;7.262;2022-07-03T14:26:04;28.60;60.60
2190;DHT22;1101;51.056;7.262;2022-07-03T14:28:32;28.70;60.40
2190;DHT22;1101;51.056;7.262;2022-07-03T14:31:17;29.00;60.50
2190;DHT22;1101;51.056;7.262;2022-07-03T14:34:04;29.10;60.00
2190;DHT22;1101;51.056;7.262;2022-07-03T14:36:32;29.20;59.80
2190;DHT22;1101;51.056;7.262;2022-07-03T14:39:10;29.40;59.80
2190;DHT22;1101;51.056;7.262;2022-07-03T14:41:40;29.50;59.80
2190;DHT22;1101;51.056;7.262;2022-07-03T14:44:08;29.60;59.60
2190;DHT22;1101;51.056;7.262;2022-07-03T14:46:35;29.70;59.60
2190;DHT22;1101;51.056;7.262;2022-07-03T14:49:05;29.80;59.20
2190;DHT22;1101;51.056;7.262;2022-07-03T14:51:33;29.80;59.40
2190;DHT22;1101;51.056;7.262;2022-07-03T14:54:01;29.80;59.20
2190;DHT22;1101;51.056;7.262;2022-07-03T14:56:29;29.80;59.20
2190;DHT22;1101;51.056;7.262;2022-07-03T14:59:00;29.80;58.70
2190;DHT22;1101;51.056;7.262;2022-07-03T15:01:31;29.80;58.90
2190;DHT22;1101;51.056;7.262;2022-07-03T15:04:02;29.70;59.10
2190;DHT22;1101;51.056;7.262;2022-07-03T15:06:32;29.70;58.80
2190;DHT22;1101;51.056;7.262;2022-07-03T15:09:01;29.70;58.90
2190;DHT22;1101;51.056;7.262;2022-07-03T15:11:34;29.70;58.70
2190;DHT22;1101;51.056;7.262;2022-07-03T15:14:22;29.80;58.80
2190;DHT22;1101;51.056;7.262;2022-07-03T15:16:51;29.80;58.50
2190;DHT22;1101;51.056;7.262;2022-07-03T15:19:20;29.80;58.00
2190;DHT22;1101;51.056;7.262;2022-07-03T15:21:51;29.70;58.30
2190;DHT22;1101;51.056;7.262;2022-07-03T15:24:20;29.60;58.30
2190;DHT22;1101;51.056;7.262;2022-07-03T15:26:53;29.40;58.20
2190;DHT22;1101;51.056;7.262;2022-07-03T15:29:21;29.20;58.30
2190;DHT22;1101;51.056;7.262;2022-07-03T15:31:49;29.00;58.70
2190;DHT22;1101;51.056;7.262;2022-07-03T15:34:17;28.90;58.90
2190;DHT22;1101;51.056;7.262;2022-07-03T15:36:48;28.90;59.10
2190;DHT22;1101;51.056;7.262;2022-07-03T15:39:27;28.90;57.80
2190;DHT22;1101;51.056;7.262;2022-07-03T15:42:04;28.70;58.80
2190;DHT22;1101;51.056;7.262;2022-07-03T15:44:38;28.50;59.00
2190;DHT22;1101;51.056;7.262;2022-07-03T15:47:20;28.50;58.60
2190;DHT22;1101;51.056;7.262;2022-07-03T15:49:53;28.30;58.90
2190;DHT22;1101;51.056;7.262;2022-07-03T15:52:24;28.20;59.30
2190;DHT22;1101;51.056;7.262;2022-07-03T15:54:57;28.20;59.40
2190;DHT22;1101;51.056;7.262;2022-07-03T15:57:32;28.20;59.50
2190;DHT22;1101;51.056;7.262;2022-07-03T16:00:04;28.10;59.40
2190;DHT22;1101;51.056;7.262;2022-07-03T16:02:43;28.00;59.10
2190;DHT22;1101;51.056;7.262;2022-07-03T16:05:17;27.90;59.20
2190;DHT22;1101;51.056;7.262;2022-07-03T16:07:47;27.70;59.40
2190;DHT22;1101;51.056;7.262;2022-07-03T16:10:20;27.80;60.00
2190;DHT22;1101;51.056;7.262;2022-07-03T16:12:48;27.90;59.80
2190;DHT22;1101;51.056;7.262;2022-07-03T16:15:16;27.80;59.30
2190;DHT22;1101;51.056;7.262;2022-07-03T16:17:46;27.60;59.20
2190;DHT22;1101;51.056;7.262;2022-07-03T16:20:16;27.50;59.40
2190;DHT22;1101;51.056;7.262;2022-07-03T16:22:46;27.40;59.20
2190;DHT22;1101;51.056;7.262;2022-07-03T16:25:14;27.30;59.60
2190;DHT22;1101;51.056;7.262;2022-07-03T16:27:43;27.20;59.80
2190;DHT22;1101;51.056;7.262;2022-07-03T16:30:12;27.10;59.90
2190;DHT22;1101;51.056;7.262;2022-07-03T16:32:42;27.10;59.90
2190;DHT22;1101;51.056;7.262;2022-07-03T16:35:13;27.10;59.90
2190;DHT22;1101;51.056;7.262;2022-07-03T16:37:45;27.00;60.00